sensor_id;sensor_type;location;lat;lon;timestamp;temperature;humidity
20658;DHT22;10488;50.846;4.078;2024-03-08T00:00:14;3.90;99.90
20658;DHT22;10488;50.846;4.078;2024-03-08T00:02:44;3.90;99.90
20658;DHT22;10488;50.846;4.078;2024-03-08T00:05:10;4.00;99.90
20658;DHT22;10488;50.846;4.078;2024-03-08T00:07:40;4.00;99.90
20658;DHT22;10488;50.846;4.078;2024-03-08T00:10:07;4.00;99.90
20658;DHT22;10488;50.846;4.078;2024-03-08T00:12:40;4.00;99.90
20658;DHT22;10488;50.846;4.078;2024-03-08T00:15:09;4.00;99.90
20658;DHT22;10488;50.846;4.078;2024-03-08T00:17:36;4.00;99.90
20658;DHT22;10488;50.846;4.078;2024-03-08T00:20:02;4.00;99.90
20658;DHT22;10488;50.846;4.078;2024-03-08T00:22:34;4.00;99.90
20658;DHT22;10488;50.846;4.078;2024-03-08T00:24:59;4.00;99.90
20658;DHT22;10488;50.846;4.078;2024-03-08T00:27:25;3.90;99.90
20658;DHT22;10488;50.846;4.078;2024-03-08T00:29:51;3.90;99.90
20658;DHT22;10488;50.846;4.078;2024-03-08T00:32:16;3.80;99.90
20658;DHT22;10488;50.846;4.078;2024-03-08T00:34:42;3.80;99.90
20658;DHT22;10488;50.846;4.078;2024-03-08T00:37:08;3.80;99.90
20658;DHT22;10488;50.846;4.078;2024-03-08T00:39:34;3.70;99.90
20658;DHT22;10488;50.846;4.078;2024-03-08T00:41:59;3.70;99.90
20658;DHT22;10488;50.846;4.078;2024-03-08T00:44:25;3.80;99.90
20658;DHT22;10488;50.846;4.078;2024-03-08T00:46:51;3.80;99.90
20658;DHT22;10488;50.846;4.078;2024-03-08T00:49:17;3.80;99.90
20658;DHT22;10488;50.846;4.078;2024-03-08T00:51:42;3.80;99.90
20658;DHT22;10488;50.846;4.078;2024-03-08T00:54:09;3.80;99.90
20658;DHT22;10488;50.846;4.078;2024-03-08T00:56:34;3.80;99.90
20658;DHT22;10488;50.846;4.078;2024-03-08T00:59:01;3.80;99.90
20658;DHT22;10488;50.846;4.078;2024-03-08T01:01:28;3.80;99.90
20658;DHT22;10488;50.846;4.078;2024-03-08T01:03:54;3.70;99.90
20658;DHT22;10488;50.846;4.078;2024-03-08T01:06:19;3.80;99.90
20658;DHT22;10488;50.846;4.078;2024-03-08T01:08:45;3.80;99.90
20658;DHT22;10488;50.846;4.078;2024-03-08T01:11:13;3.80;99.90
20658;DHT22;10488;50.846;4.078;2024-03-08T01:13:39;3.70;99.90
20658;DHT22;10488;50.846;4.078;2024-03-08T01:16:05;3.70;99.90
20658;DHT22;10488;50.846;4.078;2024-03-08T01:18:31;3.70;99.90
20658;DHT22;10488;50.846;4.078;2024-03-08T01:20:57;3.70;99.90
20658;DHT22;10488;50.846;4.078;2024-03-08T01:23:23;3.70;99.90
20658;DHT22;10488;50.846;4.078;2024-03-08T01:25:49;3.80;99.90
20658;DHT22;10488;50.846;4.078;2024-03-08T01:28:25;3.80;99.90
20658;DHT22;10488;50.846;4.078;2024-03-08T01:30:51;3.70;99.90
20658;DHT22;10488;50.846;4.078;2024-03-08T01:33:24;3.70;99.90
20658;DHT22;10488;50.846;4.078;2024-03-08T01:35:51;3.80;99.90
20658;DHT22;10488;50.846;4.078;2024-03-08T01:38:18;3.70;99.90
20658;DHT22;10488;50.846;4.078;2024-03-08T01:40:44;3.70;99.90
20658;DHT22;10488;50.846;4.078;2024-03-08T01:43:26;3.80;99.90
20658;DHT22;10488;50.846;4.078;2024-03-08T01:45:57;3.70;99.90
20658;DHT22;10488;50.846;4.078;2024-03-08T01:48:25;3.70;99.90
20658;DHT22;10488;50.846;4.078;2024-03-08T01:50:52;3.60;99.90
20658;DHT22;10488;50.846;4.078;2024-03-08T01:53:20;3.60;99.90
20658;DHT22;10488;50.846;4.078;2024-03-08T01:55:47;3.60;99.90
20658;DHT22;10488;50.846;4.078;2024-03-08T01:58:13;3.70;99.90
20658;DHT22;10488;50.846;4.078;2024-03-08T02:00:44;3.70;99.90
20658;DHT22;10488;50.846;4.078;2024-03-08T02:03:10;3.70;99.90
20658;DHT22;10488;50.846;4.078;2024-03-08T02:05:37;3.60;99.90
20658;DHT22;10488;50.846;4.078;2024-03-08T02:08:04;3.60;99.90
20658;DHT22;10488;50.846;4.078;2024-03-08T02:10:33;3.60;99.90
20658;DHT22;10488;50.846;4.078;2024-03-08T02:13:01;3.60;99.90
20658;DHT22;10488;50.846;4.078;2024-03-08T02:18:15;3.50;99.90
20658;DHT22;10488;50.846;4.078;2024-03-08T02:20:43;3.50;99.90
20658;DHT22;10488;50.846;4.078;2024-03-08T02:23:08;3.50;99.90
20658;DHT22;10488;50.846;4.078;2024-03-08T02:25:35;3.50;99.90
20658;DHT22;10488;50.846;4.078;2024-03-08T02:28:01;3.50;99.90
20658;DHT22;10488;50.846;4.078;2024-03-08T02:30:26;3.50;99.90
20658;DHT22;10488;50.846;4.078;2024-03-08T02:32:55;3.50;99.90
20658;DHT22;10488;50.846;4.078;2024-03-08T02:35:21;3.40;99.90
20658;DHT22;10488;50.846;4.078;2024-03-08T02:37:46;3.40;99.90
20658;DHT22;10488;50.846;4.078;2024-03-08T02:40:13;3.50;99.90
20658;DHT22;10488;50.846;4.078;2024-03-08T02:42:39;3.50;99.90
20658;DHT22;10488;50.846;4.078;2024-03-08T02:45:05;3.50;99.90
20658;DHT22;10488;50.846;4.078;2024-03-08T02:47:31;3.40;99.90
20658;DHT22;10488;50.846;4.078;2024-03-08T02:49:57;3.40;99.90
20658;DHT22;10488;50.846;4.078;2024-03-08T02:52:23;3.40;99.90
20658;DHT22;10488;50.846;4.078;2024-03-08T02:54:48;3.30;99.90
20658;DHT22;10488;50.846;4.078;2024-03-08T02:57:15;3.30;99.90
20658;DHT22;10488;50.846;4.078;2024-03-08T02:59:41;3.30;99.90
20658;DHT22;10488;50.846;4.078;2024-03-08T03:02:07;3.30;99.90
20658;DHT22;10488;50.846;4.078;2024-03-08T03:04:32;3.30;99.90
20658;DHT22;10488;50.846;4.078;2024-03-08T03:07:00;3.30;99.90
20658;DHT22;10488;50.846;4.078;2024-03-08T03:09:26;3.30;99.90
20658;DHT22;10488;50.846;4.078;2024-03-08T03:11:56;3.30;99.90
20658;DHT22;10488;50.846;4.078;2024-03-08T03:14:22;3.30;99.90
20658;DHT22;10488;50.846;4.078;2024-03-08T03:16:48;3.30;99.90
20658;DHT22;10488;50.846;4.078;2024-03-08T03:19:13;3.30;99.90
20658;DHT22;10488;50.846;4.078;2024-03-08T03:21:40;3.20;99.90
20658;DHT22;10488;50.846;4.078;2024-03-08T03:24:08;3.20;99.90
20658;DHT22;10488;50.846;4.078;2024-03-08T03:26:38;3.20;99.90
20658;DHT22;10488;50.846;4.078;2024-03-08T03:29:05;3.20;99.90
20658;DHT22;10488;50.846;4.078;2024-03-08T03:31:32;3.30;99.90
20658;DHT22;10488;50.846;4.078;2024-03-08T03:33:57;3.20;99.90
20658;DHT22;10488;50.846;4.078;2024-03-08T03:36:27;3.20;99.90
20658;DHT22;10488;50.846;4.078;2024-03-08T03:38:53;3.20;99.90
20658;DHT22;10488;50.846;4.078;2024-03-08T03:41:32;3.20;99.90
20658;DHT22;10488;50.846;4.078;2024-03-08T03:43:58;3.20;99.90
20658;DHT22;10488;50.846;4.078;2024-03-08T03:46:24;3.10;99.90
20658;DHT22;10488;50.846;4.078;2024-03-08T03:48:51;3.10;99.90
20658;DHT22;10488;50.846;4.078;2024-03-08T03:51:17;3.10;99.90
20658;DHT22;10488;50.846;4.078;2024-03-08T03:53:42;3.10;99.90
20658;DHT22;10488;50.846;4.078;2024-03-08T03:56:08;3.00;99.90
20658;DHT22;10488;50.846;4.078;2024-03-08T03:58:33;3.00;99.90
20658;DHT22;10488;50.846;4.078;2024-03-08T04:00:59;3.00;99.90
20658;DHT22;10488;50.846;4.078;2024-03-08T04:03:25;3.00;99.90
20658;DHT22;10488;50.846;4.078;2024-03-08T04:05:50;3.00;99.90
20658;DHT22;10488;50.846;4.078;2024-03-08T04:08:16;3.00;99.90
20658;DHT22;10488;50.846;4.078;2024-03-08T04:10:42;3.00;99.90
20658;DHT22;10488;50.846;4.078;2024-03-08T04:13:08;3.00;99.90
20658;DHT22;10488;50.846;4.078;2024-03-08T04:15:35;3.00;99.90
20658;DHT22;10488;50.846;4.078;2024-03-08T04:18:00;3.00;99.90
20658;DHT22;10488;50.846;4.078;2024-03-08T04:20:27;3.00;99.90
20658;DHT22;10488;50.846;4.078;2024-03-08T04:22:53;3.00;99.90
20658;DHT22;10488;50.846;4.078;2024-03-08T04:25:18;2.90;99.90
20658;DHT22;10488;50.846;4.078;2024-03-08T04:27:45;2.90;99.90
20658;DHT22;10488;50.846;4.078;2024-03-08T04:30:12;2.90;99.90
20658;DHT22;10488;50.846;4.078;2024-03-08T04:32:38;2.90;99.90
20658;DHT22;10488;50.846;4.078;2024-03-08T04:35:04;2.90;99.90
20658;DHT22;10488;50.846;4.078;2024-03-08T04:37:29;2.90;99.90
20658;DHT22;10488;50.846;4.078;2024-03-08T04:39:55;2.90;99.90
20658;DHT22;10488;50.846;4.078;2024-03-08T04:42:21;2.90;99.90
20658;DHT22;10488;50.846;4.078;2024-03-08T04:44:48;2.90;99.90
20658;DHT22;10488;50.846;4.078;2024-03-08T04:47:13;2.80;99.90
20658;DHT22;10488;50.846;4.078;2024-03-08T04:49:39;2.80;99.90
20658;DHT22;10488;50.846;4.078;2024-03-08T04:52:05;2.80;99.90
20658;DHT22;10488;50.846;4.078;2024-03-08T04:54:31;2.70;99.90
20658;DHT22;10488;50.846;4.078;2024-03-08T04:56:57;2.80;99.90
20658;DHT22;10488;50.846;4.078;2024-03-08T04:59:22;2.80;99.90
20658;DHT22;10488;50.846;4.078;2024-03-08T05:01:49;2.70;99.90
20658;DHT22;10488;50.846;4.078;2024-03-08T05:04:14;2.70;99.90
20658;DHT22;10488;50.846;4.078;2024-03-08T05:06:40;2.70;99.90
20658;DHT22;10488;50.846;4.078;2024-03-08T05:09:06;2.70;99.90
20658;DHT22;10488;50.846;4.078;2024-03-08T05:11:45;2.70;99.90
20658;DHT22;10488;50.846;4.078;2024-03-08T05:14:11;2.60;99.90
20658;DHT22;10488;50.846;4.078;2024-03-08T05:16:46;2.60;99.90
20658;DHT22;10488;50.846;4.078;2024-03-08T05:19:17;2.60;99.90
20658;DHT22;10488;50.846;4.078;2024-03-08T05:21:51;2.60;99.90
20658;DHT22;10488;50.846;4.078;2024-03-08T05:24:17;2.60;99.90
20658;DHT22;10488;50.846;4.078;2024-03-08T05:26:44;2.60;99.90
20658;DHT22;10488;50.846;4.078;2024-03-08T05:29:09;2.60;99.90
20658;DHT22;10488;50.846;4.078;2024-03-08T05:31:51;2.60;99.90
20658;DHT22;10488;50.846;4.078;2024-03-08T05:34:20;2.60;99.90
20658;DHT22;10488;50.846;4.078;2024-03-08T05:36:47;2.60;99.90
20658;DHT22;10488;50.846;4.078;2024-03-08T05:39:15;2.60;99.90
20658;DHT22;10488;50.846;4.078;2024-03-08T05:41:42;2.60;99.90
20658;DHT22;10488;50.846;4.078;2024-03-08T05:44:08;2.50;99.90
20658;DHT22;10488;50.846;4.078;2024-03-08T05:46:35;2.50;99.90
20658;DHT22;10488;50.846;4.078;2024-03-08T05:49:03;2.50;99.90
20658;DHT22;10488;50.846;4.078;2024-03-08T05:51:31;2.50;99.90
20658;DHT22;10488;50.846;4.078;2024-03-08T05:53:58;2.50;99.90
20658;DHT22;10488;50.846;4.078;2024-03-08T05:56:24;2.50;99.90
20658;DHT22;10488;50.846;4.078;2024-03-08T05:58:50;2.50;99.90
20658;DHT22;10488;50.846;4.078;2024-03-08T06:01:16;2.50;99.90
20658;DHT22;10488;50.846;4.078;2024-03-08T06:03:41;2.50;99.90
20658;DHT22;10488;50.846;4.078;2024-03-08T06:06:13;2.50;99.90
20658;DHT22;10488;50.846;4.078;2024-03-08T06:08:40;2.50;99.90
20658;DHT22;10488;50.846;4.078;2024-03-08T06:11:05;2.50;99.90
20658;DHT22;10488;50.846;4.078;2024-03-08T06:13:32;2.50;99.90
20658;DHT22;10488;50.846;4.078;2024-03-08T06:15:59;2.40;99.90
20658;DHT22;10488;50.846;4.078;2024-03-08T06:18:26;2.40;99.90
20658;DHT22;10488;50.846;4.078;2024-03-08T06:20:51;2.40;99.90
20658;DHT22;10488;50.846;4.078;2024-03-08T06:23:18;2.50;99.90
20658;DHT22;10488;50.846;4.078;2024-03-08T06:25:46;2.50;99.90
20658;DHT22;10488;50.846;4.078;2024-03-08T06:28:12;2.60;99.90
20658;DHT22;10488;50.846;4.078;2024-03-08T06:30:40;2.60;99.90
20658;DHT22;10488;50.846;4.078;2024-03-08T06:33:05;2.60;99.90
20658;DHT22;10488;50.846;4.078;2024-03-08T06:35:32;2.60;99.90
20658;DHT22;10488;50.846;4.078;2024-03-08T06:38:03;2.60;99.90
20658;DHT22;10488;50.846;4.078;2024-03-08T06:40:29;2.60;99.90
20658;DHT22;10488;50.846;4.078;2024-03-08T06:42:54;2.60;99.90
20658;DHT22;10488;50.846;4.078;2024-03-08T06:45:20;2.60;99.90
20658;DHT22;10488;50.846;4.078;2024-03-08T06:47:46;2.60;99.90
20658;DHT22;10488;50.846;4.078;2024-03-08T06:50:12;2.60;99.90
20658;DHT22;10488;50.846;4.078;2024-03-08T06:52:38;2.60;99.90
20658;DHT22;10488;50.846;4.078;2024-03-08T06:55:05;2.70;99.90
20658;DHT22;10488;50.846;4.078;2024-03-08T06:57:31;2.70;99.90
20658;DHT22;10488;50.846;4.078;2024-03-08T06:59:57;2.80;99.90
20658;DHT22;10488;50.846;4.078;2024-03-08T07:02:23;2.80;99.90
20658;DHT22;10488;50.846;4.078;2024-03-08T07:04:52;2.80;99.90
20658;DHT22;10488;50.846;4.078;2024-03-08T07:07:18;2.80;99.90
20658;DHT22;10488;50.846;4.078;2024-03-08T07:09:46;2.90;99.90
20658;DHT22;10488;50.846;4.078;2024-03-08T07:12:11;2.90;99.90
20658;DHT22;10488;50.846;4.078;2024-03-08T07:14:39;3.00;99.90
20658;DHT22;10488;50.846;4.078;2024-03-08T07:17:11;3.00;99.90
20658;DHT22;10488;50.846;4.078;2024-03-08T07:19:37;3.10;99.90
20658;DHT22;10488;50.846;4.078;2024-03-08T07:22:04;3.10;99.90
20658;DHT22;10488;50.846;4.078;2024-03-08T07:24:30;3.20;99.90
20658;DHT22;10488;50.846;4.078;2024-03-08T07:27:14;3.40;99.90
20658;DHT22;10488;50.846;4.078;2024-03-08T07:29:39;3.80;99.90
20658;DHT22;10488;50.846;4.078;2024-03-08T07:32:05;4.10;99.90
20658;DHT22;10488;50.846;4.078;2024-03-08T07:35:00;4.40;99.90
20658;DHT22;10488;50.846;4.078;2024-03-08T07:37:27;4.50;99.90
20658;DHT22;10488;50.846;4.078;2024-03-08T07:39:53;4.50;99.90
20658;DHT22;10488;50.846;4.078;2024-03-08T07:42:18;4.70;99.90
20658;DHT22;10488;50.846;4.078;2024-03-08T07:44:44;4.90;99.90
20658;DHT22;10488;50.846;4.078;2024-03-08T07:47:11;4.90;99.90
20658;DHT22;10488;50.846;4.078;2024-03-08T07:49:37;5.10;99.90
20658;DHT22;10488;50.846;4.078;2024-03-08T07:52:04;5.00;99.90
20658;DHT22;10488;50.846;4.078;2024-03-08T07:54:30;5.20;99.90
20658;DHT22;10488;50.846;4.078;2024-03-08T07:56:56;5.30;99.90
20658;DHT22;10488;50.846;4.078;2024-03-08T07:59:22;5.60;99.90
20658;DHT22;10488;50.846;4.078;2024-03-08T08:01:47;5.70;99.90
20658;DHT22;10488;50.846;4.078;2024-03-08T08:04:13;5.70;99.90
20658;DHT22;10488;50.846;4.078;2024-03-08T08:06:40;5.80;99.90
20658;DHT22;10488;50.846;4.078;2024-03-08T08:09:09;5.80;99.90
20658;DHT22;10488;50.846;4.078;2024-03-08T08:11:41;5.90;99.90
20658;DHT22;10488;50.846;4.078;2024-03-08T08:14:09;5.90;99.90
20658;DHT22;10488;50.846;4.078;2024-03-08T08:16:36;5.80;99.90
20658;DHT22;10488;50.846;4.078;2024-03-08T08:19:06;5.90;99.90
20658;DHT22;10488;50.846;4.078;2024-03-08T08:21:36;6.00;99.90
20658;DHT22;10488;50.846;4.078;2024-03-08T08:24:03;6.10;99.90
20658;DHT22;10488;50.846;4.078;2024-03-08T08:26:29;5.90;99.90
20658;DHT22;10488;50.846;4.078;2024-03-08T08:28:54;6.00;99.90
20658;DHT22;10488;50.846;4.078;2024-03-08T08:31:20;6.30;99.90
20658;DHT22;10488;50.846;4.078;2024-03-08T08:33:46;6.40;99.90
20658;DHT22;10488;50.846;4.078;2024-03-08T08:36:13;6.50;99.90
20658;DHT22;10488;50.846;4.078;2024-03-08T08:38:39;6.30;99.90
20658;DHT22;10488;50.846;4.078;2024-03-08T08:41:05;6.10;99.90
20658;DHT22;10488;50.846;4.078;2024-03-08T08:43:31;6.20;99.90
20658;DHT22;10488;50.846;4.078;2024-03-08T08:45:58;6.30;99.90
20658;DHT22;10488;50.846;4.078;2024-03-08T08:48:24;6.40;99.90
20658;DHT22;10488;50.846;4.078;2024-03-08T08:50:50;6.50;99.90
20658;DHT22;10488;50.846;4.078;2024-03-08T08:53:18;6.70;99.90
20658;DHT22;10488;50.846;4.078;2024-03-08T08:55:44;6.70;99.90
20658;DHT22;10488;50.846;4.078;2024-03-08T08:58:11;6.70;99.90
20658;DHT22;10488;50.846;4.078;2024-03-08T09:00:37;6.60;99.90
20658;DHT22;10488;50.846;4.078;2024-03-08T09:03:02;6.60;99.90
20658;DHT22;10488;50.846;4.078;2024-03-08T09:05:28;6.70;99.90
20658;DHT22;10488;50.846;4.078;2024-03-08T09:07:54;6.90;99.90
20658;DHT22;10488;50.846;4.078;2024-03-08T09:10:20;6.90;99.90
20658;DHT22;10488;50.846;4.078;2024-03-08T09:12:47;6.80;99.90
20658;DHT22;10488;50.846;4.078;2024-03-08T09:15:12;6.80;99.90
20658;DHT22;10488;50.846;4.078;2024-03-08T09:17:38;6.90;99.90
20658;DHT22;10488;50.846;4.078;2024-03-08T09:20:09;7.00;99.90
20658;DHT22;10488;50.846;4.078;2024-03-08T09:22:35;6.90;99.90
20658;DHT22;10488;50.846;4.078;2024-03-08T09:25:01;7.20;99.90
20658;DHT22;10488;50.846;4.078;2024-03-08T09:27:30;7.40;99.90
20658;DHT22;10488;50.846;4.078;2024-03-08T09:29:56;7.30;99.90
20658;DHT22;10488;50.846;4.078;2024-03-08T09:32:21;7.20;99.90
20658;DHT22;10488;50.846;4.078;2024-03-08T09:34:48;7.30;99.90
20658;DHT22;10488;50.846;4.078;2024-03-08T09:37:13;7.60;99.90
20658;DHT22;10488;50.846;4.078;2024-03-08T09:39:39;7.60;99.90
20658;DHT22;10488;50.846;4.078;2024-03-08T09:42:05;7.60;99.90
20658;DHT22;10488;50.846;4.078;2024-03-08T09:44:31;7.80;99.90
20658;DHT22;10488;50.846;4.078;2024-03-08T09:46:58;7.60;99.90
20658;DHT22;10488;50.846;4.078;2024-03-08T09:49:24;7.70;99.90
20658;DHT22;10488;50.846;4.078;2024-03-08T09:51:50;7.80;99.90
20658;DHT22;10488;50.846;4.078;2024-03-08T09:54:17;7.80;99.90
20658;DHT22;10488;50.846;4.078;2024-03-08T09:56:43;7.90;99.90
20658;DHT22;10488;50.846;4.078;2024-03-08T09:59:10;8.00;99.90
20658;DHT22;10488;50.846;4.078;2024-03-08T10:01:48;8.10;99.90
20658;DHT22;10488;50.846;4.078;2024-03-08T10:04:17;8.30;99.90
20658;DHT22;10488;50.846;4.078;2024-03-08T10:06:44;8.40;99.90
20658;DHT22;10488;50.846;4.078;2024-03-08T10:09:12;8.40;99.90
20658;DHT22;10488;50.846;4.078;2024-03-08T10:11:40;8.10;99.90
20658;DHT22;10488;50.846;4.078;2024-03-08T10:14:05;8.10;99.90
20658;DHT22;10488;50.846;4.078;2024-03-08T10:16:32;8.20;99.90
20658;DHT22;10488;50.846;4.078;2024-03-08T10:18:59;8.30;99.90
20658;DHT22;10488;50.846;4.078;2024-03-08T10:21:26;8.40;99.90
20658;DHT22;10488;50.846;4.078;2024-03-08T10:23:52;8.40;99.90
20658;DHT22;10488;50.846;4.078;2024-03-08T10:26:19;8.60;99.90
20658;DHT22;10488;50.846;4.078;2024-03-08T10:28:48;8.40;99.90
20658;DHT22;10488;50.846;4.078;2024-03-08T10:31:17;8.60;99.90
20658;DHT22;10488;50.846;4.078;2024-03-08T10:33:44;8.80;99.90
20658;DHT22;10488;50.846;4.078;2024-03-08T10:36:11;9.00;99.90
20658;DHT22;10488;50.846;4.078;2024-03-08T10:38:39;9.00;99.90
20658;DHT22;10488;50.846;4.078;2024-03-08T10:41:09;9.00;99.90
20658;DHT22;10488;50.846;4.078;2024-03-08T10:43:52;9.00;99.90
20658;DHT22;10488;50.846;4.078;2024-03-08T10:46:30;9.00;99.90
20658;DHT22;10488;50.846;4.078;2024-03-08T10:48:58;9.00;99.90
20658;DHT22;10488;50.846;4.078;2024-03-08T10:51:29;9.10;99.90
20658;DHT22;10488;50.846;4.078;2024-03-08T10:53:59;8.90;99.90
20658;DHT22;10488;50.846;4.078;2024-03-08T10:56:28;8.80;99.90
20658;DHT22;10488;50.846;4.078;2024-03-08T10:58:54;8.90;99.90
20658;DHT22;10488;50.846;4.078;2024-03-08T11:01:21;9.00;99.90
20658;DHT22;10488;50.846;4.078;2024-03-08T11:03:48;9.10;99.90
20658;DHT22;10488;50.846;4.078;2024-03-08T11:08:57;9.30;99.90
20658;DHT22;10488;50.846;4.078;2024-03-08T11:11:32;9.30;99.90
20658;DHT22;10488;50.846;4.078;2024-03-08T11:14:00;9.50;99.90
20658;DHT22;10488;50.846;4.078;2024-03-08T11:19:01;9.50;99.90
20658;DHT22;10488;50.846;4.078;2024-03-08T11:21:30;9.40;99.90
20658;DHT22;10488;50.846;4.078;2024-03-08T11:24:12;9.70;99.90
20658;DHT22;10488;50.846;4.078;2024-03-08T11:26:42;9.80;99.90
20658;DHT22;10488;50.846;4.078;2024-03-08T11:32:15;10.00;99.90
20658;DHT22;10488;50.846;4.078;2024-03-08T11:34:47;10.10;99.90
20658;DHT22;10488;50.846;4.078;2024-03-08T11:37:17;10.10;99.90
20658;DHT22;10488;50.846;4.078;2024-03-08T11:39:51;10.10;99.90
20658;DHT22;10488;50.846;4.078;2024-03-08T11:42:18;10.10;99.90
20658;DHT22;10488;50.846;4.078;2024-03-08T11:44:50;10.10;99.90
20658;DHT22;10488;50.846;4.078;2024-03-08T11:47:16;10.30;99.90
20658;DHT22;10488;50.846;4.078;2024-03-08T11:49:41;10.20;99.90
20658;DHT22;10488;50.846;4.078;2024-03-08T11:52:16;10.30;99.90
20658;DHT22;10488;50.846;4.078;2024-03-08T11:54:52;10.30;99.90
20658;DHT22;10488;50.846;4.078;2024-03-08T11:57:21;10.20;99.90
20658;DHT22;10488;50.846;4.078;2024-03-08T11:59:54;10.20;99.90
20658;DHT22;10488;50.846;4.078;2024-03-08T12:02:22;10.20;99.90
20658;DHT22;10488;50.846;4.078;2024-03-08T12:04:59;10.20;99.90
20658;DHT22;10488;50.846;4.078;2024-03-08T12:07:25;10.40;99.90
20658;DHT22;10488;50.846;4.078;2024-03-08T12:10:15;10.60;99.90
20658;DHT22;10488;50.846;4.078;2024-03-08T12:12:47;10.40;99.90
20658;DHT22;10488;50.846;4.078;2024-03-08T12:15:15;10.50;99.90
20658;DHT22;10488;50.846;4.078;2024-03-08T12:17:41;10.70;99.90
20658;DHT22;10488;50.846;4.078;2024-03-08T12:20:25;10.70;99.90
20658;DHT22;10488;50.846;4.078;2024-03-08T12:22:52;10.60;99.90
20658;DHT22;10488;50.846;4.078;2024-03-08T12:25:18;10.80;99.90
20658;DHT22;10488;50.846;4.078;2024-03-08T12:27:46;11.00;99.90
20658;DHT22;10488;50.846;4.078;2024-03-08T12:30:21;11.10;99.90
20658;DHT22;10488;50.846;4.078;2024-03-08T12:32:56;11.30;99.90
20658;DHT22;10488;50.846;4.078;2024-03-08T12:35:26;11.30;99.90
20658;DHT22;10488;50.846;4.078;2024-03-08T12:37:53;11.40;99.90
20658;DHT22;10488;50.846;4.078;2024-03-08T12:40:28;11.60;99.90
20658;DHT22;10488;50.846;4.078;2024-03-08T12:42:55;11.50;99.90
20658;DHT22;10488;50.846;4.078;2024-03-08T12:45:22;11.50;99.90
20658;DHT22;10488;50.846;4.078;2024-03-08T12:47:50;11.40;99.90
20658;DHT22;10488;50.846;4.078;2024-03-08T12:50:16;11.40;99.90
20658;DHT22;10488;50.846;4.078;2024-03-08T12:52:42;11.50;99.90
20658;DHT22;10488;50.846;4.078;2024-03-08T12:55:08;11.60;99.90
20658;DHT22;10488;50.846;4.078;2024-03-08T12:57:35;11.60;99.90
20658;DHT22;10488;50.846;4.078;2024-03-08T13:00:02;11.70;99.90
20658;DHT22;10488;50.846;4.078;2024-03-08T13:02:28;11.70;99.90
20658;DHT22;10488;50.846;4.078;2024-03-08T13:04:55;11.60;99.90
20658;DHT22;10488;50.846;4.078;2024-03-08T13:07:23;11.60;99.90
20658;DHT22;10488;50.846;4.078;2024-03-08T13:09:52;11.70;99.90
20658;DHT22;10488;50.846;4.078;2024-03-08T13:12:18;11.80;99.90
20658;DHT22;10488;50.846;4.078;2024-03-08T13:14:46;11.90;99.90
20658;DHT22;10488;50.846;4.078;2024-03-08T13:17:12;11.90;99.90
20658;DHT22;10488;50.846;4.078;2024-03-08T13:19:38;11.90;99.90
20658;DHT22;10488;50.846;4.078;2024-03-08T13:22:04;12.10;99.90
20658;DHT22;10488;50.846;4.078;2024-03-08T13:24:30;12.10;99.90
20658;DHT22;10488;50.846;4.078;2024-03-08T13:26:56;12.00;99.90
20658;DHT22;10488;50.846;4.078;2024-03-08T13:29:22;12.20;99.90
20658;DHT22;10488;50.846;4.078;2024-03-08T13:31:48;12.20;99.90
20658;DHT22;10488;50.846;4.078;2024-03-08T13:34:18;12.20;99.90
20658;DHT22;10488;50.846;4.078;2024-03-08T13:36:44;12.10;99.90
20658;DHT22;10488;50.846;4.078;2024-03-08T13:39:12;12.00;99.90
20658;DHT22;10488;50.846;4.078;2024-03-08T13:41:41;12.10;99.90
20658;DHT22;10488;50.846;4.078;2024-03-08T13:44:07;12.20;99.90
20658;DHT22;10488;50.846;4.078;2024-03-08T13:46:33;12.30;99.90
20658;DHT22;10488;50.846;4.078;2024-03-08T13:49:04;12.30;99.90
20658;DHT22;10488;50.846;4.078;2024-03-08T13:51:35;12.40;99.90
20658;DHT22;10488;50.846;4.078;2024-03-08T13:54:01;12.40;99.90
20658;DHT22;10488;50.846;4.078;2024-03-08T13:56:29;12.60;99.90
20658;DHT22;10488;50.846;4.078;2024-03-08T13:58:56;12.50;99.90
20658;DHT22;10488;50.846;4.078;2024-03-08T14:01:23;12.50;99.90
20658;DHT22;10488;50.846;4.078;2024-03-08T14:03:49;12.30;99.90
20658;DHT22;10488;50.846;4.078;2024-03-08T14:06:14;12.40;99.90
20658;DHT22;10488;50.846;4.078;2024-03-08T14:08:40;12.50;99.90
20658;DHT22;10488;50.846;4.078;2024-03-08T14:11:06;12.60;99.90
20658;DHT22;10488;50.846;4.078;2024-03-08T14:13:45;12.60;99.90
20658;DHT22;10488;50.846;4.078;2024-03-08T14:16:11;12.70;99.90
20658;DHT22;10488;50.846;4.078;2024-03-08T14:18:37;12.70;99.90
20658;DHT22;10488;50.846;4.078;2024-03-08T14:21:04;12.70;99.90
20658;DHT22;10488;50.846;4.078;2024-03-08T14:23:30;12.80;99.90
20658;DHT22;10488;50.846;4.078;2024-03-08T14:25:56;12.90;99.90
20658;DHT22;10488;50.846;4.078;2024-03-08T14:28:21;12.90;99.90
20658;DHT22;10488;50.846;4.078;2024-03-08T14:30:48;12.90;99.90
20658;DHT22;10488;50.846;4.078;2024-03-08T14:33:14;12.90;99.90
20658;DHT22;10488;50.846;4.078;2024-03-08T14:35:41;13.00;99.90
20658;DHT22;10488;50.846;4.078;2024-03-08T14:38:08;12.90;99.90
20658;DHT22;10488;50.846;4.078;2024-03-08T14:40:39;12.70;99.90
20658;DHT22;10488;50.846;4.078;2024-03-08T14:43:05;12.80;99.90
20658;DHT22;10488;50.846;4.078;2024-03-08T14:45:31;12.90;99.90
20658;DHT22;10488;50.846;4.078;2024-03-08T14:47:57;12.90;99.90
20658;DHT22;10488;50.846;4.078;2024-03-08T14:50:24;12.90;99.90
20658;DHT22;10488;50.846;4.078;2024-03-08T14:52:50;12.90;99.90
20658;DHT22;10488;50.846;4.078;2024-03-08T14:55:20;12.80;99.90
20658;DHT22;10488;50.846;4.078;2024-03-08T14:57:51;12.80;99.90
20658;DHT22;10488;50.846;4.078;2024-03-08T15:00:18;12.90;99.90
20658;DHT22;10488;50.846;4.078;2024-03-08T15:02:59;12.90;99.90
20658;DHT22;10488;50.846;4.078;2024-03-08T15:05:25;12.90;99.90
20658;DHT22;10488;50.846;4.078;2024-03-08T15:07:58;12.80;99.90
20658;DHT22;10488;50.846;4.078;2024-03-08T15:10:26;12.80;99.90
20658;DHT22;10488;50.846;4.078;2024-03-08T15:12:54;12.70;99.90
20658;DHT22;10488;50.846;4.078;2024-03-08T15:15:21;12.80;99.90
20658;DHT22;10488;50.846;4.078;2024-03-08T15:17:49;12.80;99.90
20658;DHT22;10488;50.846;4.078;2024-03-08T15:20:17;12.80;99.90
20658;DHT22;10488;50.846;4.078;2024-03-08T15:22:49;12.90;99.90
20658;DHT22;10488;50.846;4.078;2024-03-08T15:25:16;12.90;99.90
20658;DHT22;10488;50.846;4.078;2024-03-08T15:27:55;13.00;99.90
20658;DHT22;10488;50.846;4.078;2024-03-08T15:30:21;13.00;99.90
20658;DHT22;10488;50.846;4.078;2024-03-08T15:32:56;12.90;99.90
20658;DHT22;10488;50.846;4.078;2024-03-08T15:35:23;12.80;99.90
20658;DHT22;10488;50.846;4.078;2024-03-08T15:37:51;12.80;99.90
20658;DHT22;10488;50.846;4.078;2024-03-08T15:40:18;12.90;99.90
20658;DHT22;10488;50.846;4.078;2024-03-08T15:42:55;12.90;99.90
20658;DHT22;10488;50.846;4.078;2024-03-08T15:45:22;12.90;99.90
20658;DHT22;10488;50.846;4.078;2024-03-08T15:47:52;12.90;99.90
20658;DHT22;10488;50.846;4.078;2024-03-08T15:50:18;12.80;99.90
20658;DHT22;10488;50.846;4.078;2024-03-08T15:52:46;12.70;99.90
20658;DHT22;10488;50.846;4.078;2024-03-08T15:55:18;12.70;99.90